Terminal Aerodrome Forecast
Issued by NWS Wakefield, VA

Home | Current Version | Previous Version | Text Only | Print | Product List | Glossary On
Versions: 1 2 3 4 5 6 7 8 9 10 11 12 13 14 15 16 17 18 19 20 21 22 23 24 25 26 27 28 29 30
000
FTUS41 KAKQ 311136
TAFSBY
TAF
KSBY 311136Z 3112/0112 VRB03KT P6SM BKN004 OVC035
     FM311300 VRB03KT P6SM SCT004 BKN040
     FM311600 VRB05KT P6SM -SHRA BKN025 BKN100
     FM010200 11003KT P6SM SCT030 BKN100
     FM010600 00000KT 3SM BR SCT004 BKN030=

USA.gov is the U.S. government's official web portal to all federal, state and local government web resources and services.